Terminal Aerodrome Forecast
Issued by NWS

Home | Current Version | Previous Version | Text Only | Print | Product List | Glossary On
Versions: 1 2 3 4 5 6 7 8 9 10 11 12 13 14
000
FTUS45 KABQ 251739
TAFLVS
TAF
KLVS 251739Z 2518/2618 24012G20KT P6SM SKC
     FM251900 25023G34KT P6SM SKC
     FM260100 22011KT P6SM SCT200
     FM261600 24015G25KT P6SM BKN200=

USA.gov is the U.S. government's official web portal to all federal, state and local government web resources and services.